createdAt,value
2022-12-27T00:01:13.526Z,99925.06
2022-12-27T00:02:46.720Z,99933.75
2022-12-27T00:04:19.833Z,99932.88
2022-12-27T00:05:52.951Z,99918.09
2022-12-27T00:07:26.082Z,99931.91
2022-12-27T00:08:59.747Z,99922.28
2022-12-27T00:10:32.930Z,99933.63
2022-12-27T00:12:06.763Z,99936.25
2022-12-27T00:13:40.430Z,99932.78
2022-12-27T00:15:13.578Z,99934.53
2022-12-27T00:16:47.147Z,99936.25
2022-12-27T00:18:20.383Z,99930.22
2022-12-27T00:19:53.552Z,99925.00
2022-12-27T00:21:27.478Z,99938.06
2022-12-27T00:23:00.541Z,99934.56
2022-12-27T00:24:35.372Z,99939.78
2022-12-27T00:26:12.169Z,99944.13
2022-12-27T00:27:45.364Z,99938.03
2022-12-27T00:29:17.729Z,99929.34
2022-12-27T00:30:56.187Z,99935.44
2022-12-27T00:32:30.845Z,99938.94
2022-12-27T00:34:07.889Z,99939.81
2022-12-27T00:35:41.190Z,99936.38
2022-12-27T00:37:14.369Z,99945.13
2022-12-27T00:38:48.019Z,99945.97
2022-12-27T00:40:21.262Z,99947.72
2022-12-27T00:41:54.339Z,99945.09
2022-12-27T00:43:27.724Z,99944.19
2022-12-27T00:45:00.825Z,99948.56
2022-12-27T00:46:32.938Z,99952.06
2022-12-27T00:48:09.208Z,99945.13
2022-12-27T00:49:42.325Z,99950.34
2022-12-27T00:51:16.609Z,99941.63
2022-12-27T00:52:49.692Z,99933.78
2022-12-27T00:54:23.865Z,99941.59
2022-12-27T00:55:57.046Z,99943.31
2022-12-27T00:57:30.178Z,99938.09
2022-12-27T00:59:05.439Z,99945.91
2022-12-27T01:00:38.707Z,99945.88
2022-12-27T01:02:11.832Z,99940.66
2022-12-27T01:03:47.425Z,99929.31
2022-12-27T01:05:22.101Z,99919.66
2022-12-27T01:06:55.241Z,99928.41
2022-12-27T01:08:27.402Z,99929.28
2022-12-27T01:10:00.551Z,99924.03
2022-12-27T01:11:34.513Z,99920.53
2022-12-27T01:13:08.127Z,99923.09
2022-12-27T01:14:41.289Z,99922.22
2022-12-27T01:16:15.321Z,99924.81
2022-12-27T01:17:48.475Z,99931.78
2022-12-27T01:19:22.999Z,99926.53
2022-12-27T01:20:55.171Z,99927.25
2022-12-27T01:22:28.255Z,99936.06
2022-12-27T01:24:01.479Z,99927.41
2022-12-27T01:25:33.646Z,99929.16
2022-12-27T01:27:06.931Z,99910.09
2022-12-27T01:28:39.160Z,99917.97
2022-12-27T01:30:13.633Z,99920.59
2022-12-27T01:31:46.941Z,99921.47
2022-12-27T01:33:19.622Z,99920.59
2022-12-27T01:34:54.102Z,99920.59
2022-12-27T01:36:28.836Z,99922.38
2022-12-27T01:38:02.296Z,99924.09
2022-12-27T01:39:35.389Z,99924.09
2022-12-27T01:41:22.416Z,99922.34
2022-12-27T01:42:55.671Z,99924.06
2022-12-27T01:44:56.131Z,99920.59
2022-12-27T01:46:31.881Z,99917.13
2022-12-27T01:48:08.561Z,99927.53
2022-12-27T01:49:46.419Z,99921.44
2022-12-27T01:51:22.118Z,99924.06
2022-12-27T01:53:02.447Z,99912.78
2022-12-27T01:54:35.584Z,99916.28
2022-12-27T01:56:13.149Z,99922.38
2022-12-27T01:57:47.942Z,99920.59
2022-12-27T01:59:21.113Z,99931.91
2022-12-27T02:00:54.894Z,99920.59
2022-12-27T02:02:27.342Z,99918.81
2022-12-27T02:04:03.548Z,99913.56
2022-12-27T02:05:41.793Z,99911.84
2022-12-27T02:07:15.363Z,99887.47
2022-12-27T02:08:54.392Z,99908.38
2022-12-27T02:10:28.156Z,99903.16
2022-12-27T02:12:02.156Z,99907.41
2022-12-27T02:13:39.628Z,99903.03
2022-12-27T02:15:12.109Z,99906.47
2022-12-27T02:16:45.376Z,99898.59
2022-12-27T02:18:18.693Z,99904.69
2022-12-27T02:20:06.373Z,99908.13
2022-12-27T02:22:05.560Z,99902.00
2022-12-27T02:24:04.476Z,99897.72
2022-12-27T02:26:06.086Z,99911.59
2022-12-27T02:27:54.275Z,99902.00
2022-12-27T02:29:54.673Z,99898.53
2022-12-27T02:31:35.272Z,99899.41
2022-12-27T02:33:15.129Z,99903.72
2022-12-27T02:34:58.539Z,99908.03
2022-12-27T02:36:34.404Z,99899.38
2022-12-27T02:38:13.007Z,99900.16
2022-12-27T02:39:49.399Z,99902.00
2022-12-27T02:41:39.971Z,99878.47
2022-12-27T02:43:30.954Z,99895.00
2022-12-27T02:45:32.479Z,99890.63
2022-12-27T02:47:23.507Z,99898.41
2022-12-27T02:49:16.183Z,99896.69
2022-12-27T02:51:23.820Z,99894.94
2022-12-27T02:53:13.813Z,99894.03
2022-12-27T02:55:03.770Z,99889.69
2022-12-27T02:57:05.621Z,99884.44
2022-12-27T02:58:50.899Z,99894.97
2022-12-27T03:00:44.364Z,99898.47
2022-12-27T03:02:43.034Z,99895.84
2022-12-27T03:04:32.719Z,99893.25
2022-12-27T03:06:43.395Z,99898.50
2022-12-27T03:08:26.609Z,99895.84
2022-12-27T03:10:28.488Z,99890.59
2022-12-27T03:12:25.512Z,99881.78
2022-12-27T03:14:31.141Z,99886.97
2022-12-27T03:16:20.132Z,99892.19
2022-12-27T03:18:04.431Z,99886.13
2022-12-27T03:19:59.871Z,99887.91
2022-12-27T03:21:54.410Z,99890.44
2022-12-27T03:23:56.947Z,99893.09
2022-12-27T03:25:32.891Z,99888.78
2022-12-27T03:27:18.336Z,99887.06
2022-12-27T03:29:10.900Z,99892.31
2022-12-27T03:31:04.259Z,99887.09
2022-12-27T03:33:01.536Z,99889.69
2022-12-27T03:34:39.998Z,99893.16
2022-12-27T03:36:34.651Z,99894.91
2022-12-27T03:38:12.551Z,99883.59
2022-12-27T03:39:52.682Z,99892.34
2022-12-27T03:41:47.150Z,99890.56
2022-12-27T03:43:20.343Z,99892.38
2022-12-27T03:44:52.798Z,99889.75
2022-12-27T03:46:34.819Z,99895.81
2022-12-27T03:48:12.923Z,99895.81
2022-12-27T03:49:50.560Z,99889.69
2022-12-27T03:51:25.790Z,99887.94
2022-12-27T03:53:04.780Z,99900.94
2022-12-27T03:54:40.773Z,99894.00
2022-12-27T03:56:13.057Z,99900.94
2022-12-27T03:57:46.649Z,99906.19
2022-12-27T03:59:19.845Z,99897.47
2022-12-27T04:00:53.053Z,99900.19
2022-12-27T04:02:26.402Z,99894.13
2022-12-27T04:04:01.136Z,99901.06
2022-12-27T04:05:34.201Z,99903.66
2022-12-27T04:07:06.876Z,99894.00
2022-12-27T04:08:57.439Z,99895.84
2022-12-27T04:10:47.541Z,99905.50
2022-12-27T04:12:37.893Z,99907.25
2022-12-27T04:14:28.464Z,99898.69
2022-12-27T04:16:19.441Z,99904.81
2022-12-27T04:18:10.252Z,99900.50
2022-12-27T04:20:02.482Z,99910.94
2022-12-27T04:21:53.049Z,99906.66
2022-12-27T04:23:43.835Z,99911.88
2022-12-27T04:25:34.568Z,99901.47
2022-12-27T04:27:25.163Z,99910.13
2022-12-27T04:29:15.717Z,99904.97
2022-12-27T04:31:06.440Z,99897.94
2022-12-27T04:32:56.972Z,99898.06
2022-12-27T04:34:43.537Z,99909.38
2022-12-27T04:36:18.083Z,99905.13
2022-12-27T04:37:50.223Z,99901.69
2022-12-27T04:39:23.341Z,99908.69
2022-12-27T04:41:14.061Z,99906.09
2022-12-27T04:43:04.545Z,99898.28
2022-12-27T04:44:55.341Z,99903.50
2022-12-27T04:46:46.235Z,99906.16
2022-12-27T04:48:38.587Z,99898.31
2022-12-27T04:50:31.667Z,99894.81
2022-12-27T04:52:30.445Z,99900.13
2022-12-27T04:54:21.235Z,99899.28
2022-12-27T04:55:54.363Z,99893.22
2022-12-27T04:57:28.342Z,99905.41
2022-12-27T04:59:18.975Z,99901.97
2022-12-27T05:01:14.152Z,99910.72
2022-12-27T05:02:47.862Z,99899.41
2022-12-27T05:04:21.222Z,99893.34
2022-12-27T05:05:54.760Z,99890.75
2022-12-27T05:07:47.346Z,99898.59
2022-12-27T05:09:38.189Z,99896.88
2022-12-27T05:11:29.520Z,99910.88
2022-12-27T05:13:20.143Z,99891.75
2022-12-27T05:14:53.209Z,99895.25
2022-12-27T05:16:26.026Z,99893.53
2022-12-27T05:17:59.472Z,99889.19
2022-12-27T05:19:32.598Z,99886.56
2022-12-27T05:21:06.240Z,99899.69
2022-12-27T05:22:58.533Z,99910.13
2022-12-27T05:24:49.442Z,99897.03
2022-12-27T05:26:24.387Z,99881.38
2022-12-27T05:27:56.572Z,99898.78
2022-12-27T05:29:35.972Z,99893.56
2022-12-27T05:31:10.049Z,99881.41
2022-12-27T05:32:43.447Z,99895.31
2022-12-27T05:34:16.904Z,99898.78
2022-12-27T05:35:49.084Z,99891.88
2022-12-27T05:37:22.242Z,99885.75
2022-12-27T05:38:56.872Z,99890.09
2022-12-27T05:40:29.051Z,99887.53
2022-12-27T05:42:02.237Z,99887.53
2022-12-27T05:43:37.282Z,99891.84
2022-12-27T05:45:09.765Z,99901.47
2022-12-27T05:46:43.820Z,99893.59
2022-12-27T05:48:16.951Z,99901.47
2022-12-27T05:49:49.227Z,99891.88
2022-12-27T05:51:23.875Z,99891.84
2022-12-27T05:52:57.112Z,99891.84
2022-12-27T05:54:32.153Z,99897.09
2022-12-27T05:56:07.318Z,99901.47
2022-12-27T05:57:40.878Z,99905.84
2022-12-27T05:59:15.046Z,99905.84
2022-12-27T06:00:48.460Z,99893.66
2022-12-27T06:02:22.193Z,99888.41
2022-12-27T06:03:56.260Z,99885.84
2022-12-27T06:05:29.118Z,99886.72
2022-12-27T06:07:02.244Z,99891.94
2022-12-27T06:08:37.672Z,99881.50
2022-12-27T06:10:13.527Z,99888.47
2022-12-27T06:11:47.475Z,99886.75
2022-12-27T06:13:20.717Z,99897.19
2022-12-27T06:14:53.859Z,99893.72
2022-12-27T06:16:27.195Z,99897.19
2022-12-27T06:18:03.600Z,99895.44
2022-12-27T06:19:36.803Z,99892.00
2022-12-27T06:21:13.433Z,99898.97
2022-12-27T06:22:47.331Z,99890.28
2022-12-27T06:24:20.686Z,99885.06
2022-12-27T06:25:55.528Z,99900.72
2022-12-27T06:27:29.654Z,99893.75
2022-12-27T06:29:01.832Z,99896.41
2022-12-27T06:30:36.480Z,99895.56
2022-12-27T06:32:09.056Z,99891.22
2022-12-27T06:33:42.382Z,99892.09
2022-12-27T06:35:14.574Z,99896.50
2022-12-27T06:36:51.673Z,99903.47
2022-12-27T06:38:24.258Z,99895.63
2022-12-27T06:39:58.199Z,99891.31
2022-12-27T06:41:32.859Z,99892.19
2022-12-27T06:43:05.629Z,99890.44
2022-12-27T06:44:39.299Z,99888.69
2022-12-27T06:46:17.618Z,99884.31
2022-12-27T06:47:52.056Z,99898.28
2022-12-27T06:49:25.898Z,99896.53
2022-12-27T06:51:00.814Z,99900.06
2022-12-27T06:52:34.192Z,99893.97
2022-12-27T06:54:08.975Z,99889.59
2022-12-27T06:55:44.695Z,99905.31
2022-12-27T06:57:20.458Z,99882.66
2022-12-27T06:58:54.636Z,99885.28
2022-12-27T07:00:27.903Z,99888.75
2022-12-27T07:02:01.529Z,99896.63
2022-12-27T07:03:35.241Z,99899.25
2022-12-27T07:05:09.306Z,99891.41
2022-12-27T07:06:42.521Z,99891.41
2022-12-27T07:08:16.641Z,99890.53
2022-12-27T07:09:53.051Z,99899.25
2022-12-27T07:11:27.488Z,99895.78
2022-12-27T07:13:02.024Z,99883.56
2022-12-27T07:14:35.506Z,99878.34
2022-12-27T07:16:11.036Z,99885.31
2022-12-27T07:17:44.191Z,99883.56
2022-12-27T07:19:17.956Z,99870.50
2022-12-27T07:20:51.525Z,99878.38
2022-12-27T07:22:24.916Z,99885.34
2022-12-27T07:23:58.969Z,99873.13
2022-12-27T07:25:33.232Z,99875.75
2022-12-27T07:27:06.398Z,99883.59
2022-12-27T07:28:41.309Z,99878.34
2022-12-27T07:30:15.428Z,99877.47
2022-12-27T07:31:48.992Z,99878.34
2022-12-27T07:33:21.129Z,99882.69
2022-12-27T07:34:54.286Z,99883.59
2022-12-27T07:36:31.431Z,99880.94
2022-12-27T07:38:04.823Z,99874.84
2022-12-27T07:39:38.028Z,99882.69
2022-12-27T07:41:12.180Z,99864.38
2022-12-27T07:42:45.484Z,99871.34
2022-12-27T07:44:20.559Z,99881.78
2022-12-27T07:45:54.362Z,99880.00
2022-12-27T07:47:28.345Z,99880.84
2022-12-27T07:49:02.604Z,99882.56
2022-12-27T07:50:36.027Z,99887.78
2022-12-27T07:52:09.223Z,99886.91
2022-12-27T07:53:42.909Z,99888.63
2022-12-27T07:55:16.060Z,99886.91
2022-12-27T07:56:49.816Z,99881.69
2022-12-27T07:58:23.210Z,99890.41
2022-12-27T07:59:57.938Z,99888.63
2022-12-27T08:02:01.139Z,99885.16
2022-12-27T08:03:35.033Z,99882.44
2022-12-27T08:05:09.095Z,99881.38
2022-12-27T08:06:42.778Z,99877.81
2022-12-27T08:08:17.964Z,99877.50
2022-12-27T08:09:51.982Z,99866.56
2022-12-27T08:11:26.857Z,99871.28
2022-12-27T08:13:00.611Z,99875.88
2022-12-27T08:14:33.885Z,99879.78
2022-12-27T08:16:11.869Z,99878.53
2022-12-27T08:17:45.471Z,99874.44
2022-12-27T08:21:12.932Z,99881.13
2022-12-27T08:22:46.381Z,99872.63
2022-12-27T08:24:19.580Z,99872.00
2022-12-27T08:25:52.819Z,99873.94
2022-12-27T08:27:26.312Z,99873.03
2022-12-27T08:28:59.472Z,99869.75
2022-12-27T08:30:31.968Z,99870.66
2022-12-27T08:32:07.643Z,99861.94
2022-12-27T08:33:42.572Z,99864.25
2022-12-27T08:35:50.858Z,99856.22
2022-12-27T08:37:09.748Z,99855.75
2022-12-27T08:38:42.956Z,99854.66
2022-12-27T08:40:16.621Z,99859.13
2022-12-27T08:41:50.087Z,99858.09
2022-12-27T08:43:23.315Z,99856.34
2022-12-27T08:44:56.822Z,99854.28
2022-12-27T08:46:30.021Z,99850.25
2022-12-27T08:48:05.824Z,99855.03
2022-12-27T08:49:39.286Z,99854.50
2022-12-27T08:51:16.898Z,99850.84
2022-12-27T08:52:58.602Z,99853.34
2022-12-27T08:54:31.833Z,99839.97
2022-12-27T08:56:05.486Z,99833.59
2022-12-27T08:57:38.631Z,99831.25
2022-12-27T08:59:11.930Z,99836.06
2022-12-27T09:00:45.212Z,99831.41
2022-12-27T09:02:18.484Z,99833.06
2022-12-27T09:03:53.391Z,99825.72
2022-12-27T09:05:28.144Z,99809.38
2022-12-27T09:07:01.606Z,99819.59
2022-12-27T09:08:35.099Z,99810.03
2022-12-27T09:10:09.429Z,99816.28
2022-12-27T09:11:43.041Z,99801.41
2022-12-27T09:13:16.881Z,99807.78
2022-12-27T09:14:49.983Z,99809.00
2022-12-27T09:16:27.690Z,99799.19
2022-12-27T09:18:01.589Z,99795.88
2022-12-27T09:19:36.750Z,99792.56
2022-12-27T09:21:13.310Z,99794.94
2022-12-27T09:22:46.694Z,99788.13
2022-12-27T09:24:20.145Z,99789.72
2022-12-27T09:25:52.334Z,99777.41
2022-12-27T09:27:26.415Z,99781.53
2022-12-27T09:29:00.880Z,99773.56
2022-12-27T09:30:33.945Z,99773.75
2022-12-27T09:32:07.292Z,99778.00
2022-12-27T09:33:41.617Z,99779.72
2022-12-27T09:35:16.699Z,99775.22
2022-12-27T09:36:50.448Z,99761.69
2022-12-27T09:38:24.020Z,99773.81
2022-12-27T09:39:57.885Z,99768.50
2022-12-27T09:43:43.048Z,99775.03
2022-12-27T09:45:20.684Z,99761.56
2022-12-27T09:46:59.423Z,99765.56
2022-12-27T09:48:37.180Z,99760.81
2022-12-27T09:50:18.708Z,99762.38
2022-12-27T09:51:57.353Z,99746.66
2022-12-27T09:53:44.282Z,99759.22
2022-12-27T09:55:22.417Z,99759.53
2022-12-27T09:58:54.167Z,99756.94
2022-12-27T10:00:34.612Z,99744.97
2022-12-27T10:02:21.477Z,99746.66
2022-12-27T10:03:55.874Z,99737.25
2022-12-27T10:05:35.325Z,99741.00
2022-12-27T10:07:21.460Z,99740.13
2022-12-27T10:08:59.792Z,99738.22
2022-12-27T10:10:43.257Z,99730.28
2022-12-27T10:12:31.764Z,99730.41
2022-12-27T10:14:20.235Z,99720.72
2022-12-27T10:16:03.632Z,99715.34
2022-12-27T10:17:53.295Z,99716.34
2022-12-27T10:19:36.219Z,99714.31
2022-12-27T10:21:18.544Z,99722.13
2022-12-27T10:22:54.269Z,99723.66
2022-12-27T10:24:37.101Z,99714.53
2022-12-27T10:26:15.148Z,99704.59
2022-12-27T10:27:49.470Z,99708.03
2022-12-27T10:29:24.187Z,99705.25
2022-12-27T10:30:57.692Z,99699.09
2022-12-27T10:32:30.847Z,99702.47
2022-12-27T10:34:09.025Z,99700.41
2022-12-27T10:35:44.680Z,99703.75
2022-12-27T10:37:19.392Z,99693.78
2022-12-27T10:38:52.551Z,99693.66
2022-12-27T10:40:34.662Z,99683.88
2022-12-27T10:42:18.065Z,99687.41
2022-12-27T10:43:54.339Z,99680.34
2022-12-27T10:45:34.815Z,99680.25
2022-12-27T10:47:08.226Z,99681.78
2022-12-27T10:49:18.847Z,99670.84
2022-12-27T10:50:34.745Z,99664.31
2022-12-27T10:52:09.978Z,99672.03
2022-12-27T10:54:01.062Z,99668.13
2022-12-27T10:55:39.407Z,99645.81
2022-12-27T10:57:26.434Z,99646.47
2022-12-27T10:59:15.744Z,99646.13
2022-12-27T11:00:55.957Z,99652.81
2022-12-27T11:02:29.665Z,99641.84
2022-12-27T11:04:20.243Z,99646.44
2022-12-27T11:06:03.013Z,99635.31
2022-12-27T11:07:36.363Z,99641.91
2022-12-27T11:09:32.337Z,99646.72
2022-12-27T11:11:18.034Z,99636.78
2022-12-27T11:13:05.039Z,99634.47
2022-12-27T11:14:38.424Z,99623.94
2022-12-27T11:16:25.173Z,99635.22
2022-12-27T11:18:01.474Z,99636.06
2022-12-27T11:19:35.241Z,99632.09
2022-12-27T11:21:23.867Z,99635.75
2022-12-27T11:23:03.666Z,99633.75
2022-12-27T11:24:38.705Z,99640.50
2022-12-27T11:26:20.553Z,99630.44
2022-12-27T11:27:58.011Z,99639.94
2022-12-27T11:29:33.968Z,99634.94
2022-12-27T11:31:11.146Z,99621.50
2022-12-27T11:32:47.107Z,99630.69
2022-12-27T11:34:26.448Z,99636.25
2022-12-27T11:36:02.076Z,99637.63
2022-12-27T11:37:41.887Z,99630.28
2022-12-27T11:39:41.319Z,99635.38
2022-12-27T11:41:27.537Z,99635.00
2022-12-27T11:43:07.229Z,99629.28
2022-12-27T11:44:45.146Z,99632.16
2022-12-27T11:46:28.653Z,99637.00
2022-12-27T11:48:08.423Z,99641.72
2022-12-27T11:49:51.945Z,99634.22
2022-12-27T11:51:48.564Z,99651.03
2022-12-27T11:53:39.965Z,99657.34
2022-12-27T11:55:40.408Z,99654.00
2022-12-27T11:57:25.100Z,99649.50
2022-12-27T11:59:34.703Z,99645.22
2022-12-27T12:01:38.408Z,99670.16
2022-12-27T12:03:36.568Z,99657.91
2022-12-27T12:05:44.675Z,99678.16
2022-12-27T12:07:33.137Z,99680.44
2022-12-27T12:09:40.067Z,99679.22
2022-12-27T12:11:28.266Z,99679.22
2022-12-27T12:13:16.125Z,99689.13
2022-12-27T12:15:04.060Z,99691.41
2022-12-27T12:17:02.772Z,99691.13
2022-12-27T12:18:50.644Z,99699.59
2022-12-27T12:21:11.237Z,99696.47
2022-12-27T12:23:00.061Z,99681.47
2022-12-27T12:24:52.245Z,99696.13
2022-12-27T12:26:28.253Z,99708.56
2022-12-27T12:28:57.104Z,99715.81
2022-12-27T12:30:41.181Z,99709.88
2022-12-27T12:32:30.696Z,99723.22
2022-12-27T12:34:27.102Z,99722.00
2022-12-27T12:36:31.531Z,99729.41
2022-12-27T12:38:13.254Z,99728.03
2022-12-27T12:40:05.662Z,99718.03
2022-12-27T12:42:02.409Z,99718.19
2022-12-27T12:43:57.264Z,99719.44
2022-12-27T12:46:09.678Z,99737.44
2022-12-27T12:48:06.066Z,99740.38
2022-12-27T12:50:08.017Z,99752.31
2022-12-27T12:52:10.873Z,99755.41
2022-12-27T12:54:02.663Z,99747.28
2022-12-27T12:55:47.500Z,99760.31
2022-12-27T12:57:37.049Z,99768.78
2022-12-27T12:59:26.579Z,99764.56
2022-12-27T13:01:20.936Z,99762.19
2022-12-27T13:03:21.715Z,99776.78
2022-12-27T13:05:19.413Z,99756.38
2022-12-27T13:07:17.495Z,99762.19
2022-12-27T13:09:03.628Z,99742.09
2022-12-27T13:11:11.190Z,99766.25
2022-12-27T13:12:53.517Z,99760.59
2022-12-27T13:14:51.535Z,99767.38
2022-12-27T13:16:35.710Z,99771.09
2022-12-27T13:18:28.341Z,99761.59
2022-12-27T13:20:19.022Z,99758.22
2022-12-27T13:22:05.718Z,99766.22
2022-12-27T13:24:00.775Z,99766.69
2022-12-27T13:25:46.177Z,99776.63
2022-12-27T13:27:38.953Z,99750.44
2022-12-27T13:29:42.720Z,99777.09
2022-12-27T13:31:29.409Z,99784.50
2022-12-27T13:33:21.010Z,99789.44
2022-12-27T13:35:09.401Z,99788.16
2022-12-27T13:36:56.122Z,99793.75
2022-12-27T13:38:41.438Z,99795.78
2022-12-27T13:40:29.777Z,99800.44
2022-12-27T13:42:36.970Z,99809.66
2022-12-27T13:44:24.832Z,99816.78
2022-12-27T13:46:21.357Z,99802.09
2022-12-27T13:48:07.180Z,99798.78
2022-12-27T13:49:58.803Z,99826.19
2022-12-27T13:51:47.240Z,99822.19
2022-12-27T13:53:41.203Z,99825.09
2022-12-27T13:55:32.586Z,99820.78
2022-12-27T13:57:20.896Z,99817.16
2022-12-27T13:59:09.979Z,99830.09
2022-12-27T14:00:49.898Z,99832.75
2022-12-27T14:02:52.168Z,99830.47
2022-12-27T14:04:59.347Z,99830.75
2022-12-27T14:06:59.144Z,99838.91
2022-12-27T14:08:52.610Z,99845.00
2022-12-27T14:10:40.975Z,99841.53
2022-12-27T14:12:48.871Z,99858.38
2022-12-27T14:14:26.568Z,99856.78
2022-12-27T14:16:23.949Z,99862.81
2022-12-27T14:18:20.284Z,99871.72
2022-12-27T14:20:17.929Z,99873.56
2022-12-27T14:22:13.152Z,99878.22
2022-12-27T14:24:11.189Z,99869.72
2022-12-27T14:26:18.547Z,99879.50
2022-12-27T14:28:36.581Z,99878.59
2022-12-27T14:30:33.157Z,99869.00
2022-12-27T14:32:41.819Z,99876.13
2022-12-27T14:34:48.604Z,99872.69
2022-12-27T14:37:05.261Z,99874.56
2022-12-27T14:39:01.397Z,99882.56
2022-12-27T14:41:08.776Z,99887.44
2022-12-27T14:43:17.166Z,99891.00
2022-12-27T14:45:22.935Z,99889.53
2022-12-27T14:47:21.188Z,99880.03
2022-12-27T14:49:37.477Z,99882.88
2022-12-27T14:54:06.273Z,99874.34
2022-12-27T14:55:55.618Z,99883.22
2022-12-27T14:57:39.607Z,99874.44
2022-12-27T14:59:27.133Z,99885.81
2022-12-27T15:01:07.263Z,99885.69
2022-12-27T15:03:18.298Z,99897.09
2022-12-27T15:05:13.464Z,99889.78
2022-12-27T15:07:17.672Z,99889.03
2022-12-27T15:09:07.365Z,99888.41
2022-12-27T15:10:56.205Z,99883.22
2022-12-27T15:12:39.859Z,99888.53
2022-12-27T15:14:31.883Z,99893.00
2022-12-27T15:16:16.801Z,99892.13
2022-12-27T15:18:17.016Z,99909.84
2022-12-27T15:20:10.948Z,99907.34
2022-12-27T15:21:58.381Z,99920.81
2022-12-27T15:23:39.777Z,99924.50
2022-12-27T15:25:26.209Z,99923.72
2022-12-27T15:27:07.405Z,99928.25
2022-12-27T15:28:57.472Z,99939.97
2022-12-27T15:30:41.185Z,99945.47
2022-12-27T15:32:29.988Z,99939.53
2022-12-27T15:34:18.187Z,99953.03
2022-12-27T15:36:01.860Z,99955.91
2022-12-27T15:37:57.331Z,99960.50
2022-12-27T15:39:50.439Z,99967.78
2022-12-27T15:41:49.071Z,99963.50
2022-12-27T15:43:51.977Z,99963.63
2022-12-27T15:45:42.898Z,99963.81
2022-12-27T15:47:42.081Z,99958.69
2022-12-27T15:49:26.674Z,99958.91
2022-12-27T15:51:09.818Z,99956.41
2022-12-27T15:53:10.658Z,99960.09
2022-12-27T15:55:08.769Z,99954.88
2022-12-27T15:57:00.271Z,99959.34
2022-12-27T15:58:34.458Z,99956.78
2022-12-27T16:00:16.271Z,99942.00
2022-12-27T16:01:50.524Z,99947.31
2022-12-27T16:03:35.207Z,99945.59
2022-12-27T16:05:34.033Z,99944.75
2022-12-27T16:07:40.652Z,99957.72
2022-12-27T16:09:35.605Z,99963.22
2022-12-27T16:11:11.829Z,99959.66
2022-12-27T16:12:47.550Z,99957.88
2022-12-27T16:14:27.905Z,99968.44
2022-12-27T16:16:01.624Z,99968.53
2022-12-27T16:17:41.582Z,99967.66
2022-12-27T16:19:28.424Z,99975.69
2022-12-27T16:21:03.969Z,99970.78
2022-12-27T16:22:43.719Z,99976.09
2022-12-27T16:24:20.776Z,99978.03
2022-12-27T16:26:03.132Z,99987.75
2022-12-27T16:27:36.294Z,99986.91
2022-12-27T16:29:18.145Z,99996.75
2022-12-27T16:30:54.492Z,99994.13
2022-12-27T16:32:29.645Z,100009.22
2022-12-27T16:34:14.283Z,100015.38
2022-12-27T16:35:48.014Z,100008.34
2022-12-27T16:37:38.974Z,100012.00
2022-12-27T16:39:31.436Z,100008.41
2022-12-27T16:41:17.500Z,100002.59
2022-12-27T16:43:44.390Z,100016.88
2022-12-27T16:45:36.229Z,100013.38
2022-12-27T16:47:16.496Z,100005.72
2022-12-27T16:49:14.668Z,100007.66
2022-12-27T16:51:03.823Z,100012.09
2022-12-27T16:52:54.143Z,100013.94
2022-12-27T16:54:37.948Z,100016.72
2022-12-27T16:56:23.045Z,100019.47
2022-12-27T16:58:22.268Z,100007.44
2022-12-27T17:00:40.356Z,100032.78
2022-12-27T17:02:33.797Z,100031.16
2022-12-27T17:04:07.501Z,100034.63
2022-12-27T17:05:52.932Z,100038.19
2022-12-27T17:07:50.094Z,100046.28
2022-12-27T17:09:45.863Z,100047.25
2022-12-27T17:11:27.279Z,100037.63
2022-12-27T17:13:03.951Z,100043.94
2022-12-27T17:14:39.818Z,100044.06
2022-12-27T17:16:22.010Z,100049.44
2022-12-27T17:18:00.941Z,100046.03
2022-12-27T17:19:39.660Z,100044.22
2022-12-27T17:21:17.302Z,100050.59
2022-12-27T17:22:59.169Z,100051.56
2022-12-27T17:24:32.711Z,100044.63
2022-12-27T17:26:21.137Z,100052.56
2022-12-27T17:28:12.007Z,100048.25
2022-12-27T17:30:03.915Z,100053.56
2022-12-27T17:31:46.544Z,100051.91
2022-12-27T17:33:41.191Z,100060.81
2022-12-27T17:35:24.520Z,100062.59
2022-12-27T17:37:12.600Z,100053.78
2022-12-27T17:39:04.399Z,100053.09
2022-12-27T17:40:48.063Z,100059.22
2022-12-27T17:42:49.010Z,100059.28
2022-12-27T17:44:39.923Z,100057.44
2022-12-27T17:46:28.060Z,100065.56
2022-12-27T17:48:15.243Z,100075.41
2022-12-27T17:49:49.074Z,100077.22
2022-12-27T17:51:26.154Z,100073.81
2022-12-27T17:53:34.647Z,100084.59
2022-12-27T17:55:37.822Z,100079.38
2022-12-27T17:57:32.430Z,100081.16
2022-12-27T17:59:13.070Z,100074.28
2022-12-27T18:00:55.764Z,100086.50
2022-12-27T18:02:33.537Z,100083.75
2022-12-27T18:04:09.140Z,100086.38
2022-12-27T18:05:44.678Z,100088.97
2022-12-27T18:07:25.391Z,100080.06
2022-12-27T18:08:59.112Z,100087.09
2022-12-27T18:10:34.533Z,100083.53
2022-12-27T18:12:13.538Z,100086.06
2022-12-27T18:13:52.947Z,100085.97
2022-12-27T18:15:27.980Z,100073.66
2022-12-27T18:17:01.729Z,100077.84
2022-12-27T18:18:36.306Z,100079.50
2022-12-27T18:20:29.758Z,100089.88
2022-12-27T18:22:04.476Z,100088.91
2022-12-27T18:23:48.100Z,100094.94
2022-12-27T18:25:25.794Z,100095.66
2022-12-27T18:27:07.253Z,100095.56
2022-12-27T18:28:41.628Z,100087.63
2022-12-27T18:30:16.262Z,100097.19
2022-12-27T18:31:51.572Z,100096.19
2022-12-27T18:33:30.426Z,100097.13
2022-12-27T18:35:04.852Z,100106.81
2022-12-27T18:36:43.219Z,100107.63
2022-12-27T18:38:24.430Z,100105.03
2022-12-27T18:40:01.484Z,100109.38
2022-12-27T18:41:38.940Z,100122.53
2022-12-27T18:43:16.895Z,100109.28
2022-12-27T18:44:55.281Z,100117.97
2022-12-27T18:46:31.432Z,100116.09
2022-12-27T18:48:13.213Z,100110.84
2022-12-27T18:49:46.900Z,100122.19
2022-12-27T18:51:20.644Z,100116.03
2022-12-27T18:53:03.733Z,100121.25
2022-12-27T18:54:37.386Z,100114.47
2022-12-27T18:56:27.361Z,100120.63
2022-12-27T18:58:06.597Z,100124.91
2022-12-27T18:59:40.276Z,100131.88
2022-12-27T19:01:32.173Z,100128.25
2022-12-27T19:03:16.884Z,100131.88
2022-12-27T19:05:14.781Z,100138.91
2022-12-27T19:06:56.094Z,100131.78
2022-12-27T19:08:35.619Z,100130.91
2022-12-27T19:10:18.395Z,100126.41
2022-12-27T19:11:55.535Z,100132.50
2022-12-27T19:13:32.038Z,100132.47
2022-12-27T19:15:15.869Z,100134.16
2022-12-27T19:16:52.840Z,100130.66
2022-12-27T19:18:29.521Z,100126.41
2022-12-27T19:20:05.036Z,100124.47
2022-12-27T19:21:40.845Z,100135.91
2022-12-27T19:23:30.115Z,100132.25
2022-12-27T19:25:06.889Z,100133.19
2022-12-27T19:26:40.466Z,100143.69
2022-12-27T19:28:27.643Z,100135.72
2022-12-27T19:30:01.190Z,100143.78
2022-12-27T19:31:36.568Z,100149.91
2022-12-27T19:33:14.850Z,100148.22
2022-12-27T19:34:51.611Z,100152.38
2022-12-27T19:36:28.064Z,100141.03
2022-12-27T19:38:02.883Z,100164.81
2022-12-27T19:39:39.157Z,100150.91
2022-12-27T19:41:15.487Z,100168.38
2022-12-27T19:42:48.811Z,100164.88
2022-12-27T19:44:22.160Z,100167.53
2022-12-27T19:45:55.589Z,100165.84
2022-12-27T19:47:29.268Z,100166.88
2022-12-27T19:50:56.464Z,100159.22
2022-12-27T19:52:30.109Z,100156.56
2022-12-27T19:54:05.385Z,100160.94
2022-12-27T19:55:38.795Z,100156.38
2022-12-27T19:57:14.188Z,100170.38
2022-12-27T19:58:48.708Z,100168.47
2022-12-27T20:00:23.288Z,100161.31
2022-12-27T20:01:56.756Z,100162.09
2022-12-27T20:03:30.124Z,100149.13